sensor_id;sensor_type;location;lat;lon;timestamp;P1;durP1;ratioP1;P2;durP2;ratioP2
53207;SDS011;39093;52.788;6.940;2024-02-14T00:00:58;10.00;;;7.07;;
53207;SDS011;39093;52.788;6.940;2024-02-14T00:03:25;13.75;;;6.88;;
53207;SDS011;39093;52.788;6.940;2024-02-14T00:05:53;12.30;;;7.88;;
53207;SDS011;39093;52.788;6.940;2024-02-14T00:08:22;16.58;;;8.30;;
53207;SDS011;39093;52.788;6.940;2024-02-14T00:10:49;13.30;;;8.35;;
53207;SDS011;39093;52.788;6.940;2024-02-14T00:13:16;13.98;;;8.07;;
53207;SDS011;39093;52.788;6.940;2024-02-14T00:15:45;12.05;;;9.07;;
53207;SDS011;39093;52.788;6.940;2024-02-14T00:18:14;17.75;;;9.98;;
53207;SDS011;39093;52.788;6.940;2024-02-14T00:20:46;16.08;;;9.10;;
53207;SDS011;39093;52.788;6.940;2024-02-14T00:23:13;16.33;;;9.98;;
53207;SDS011;39093;52.788;6.940;2024-02-14T00:25:40;18.15;;;10.25;;
53207;SDS011;39093;52.788;6.940;2024-02-14T00:28:07;16.80;;;9.75;;
53207;SDS011;39093;52.788;6.940;2024-02-14T00:30:33;23.65;;;11.93;;
53207;SDS011;39093;52.788;6.940;2024-02-14T00:33:00;17.45;;;11.10;;
53207;SDS011;39093;52.788;6.940;2024-02-14T00:35:28;18.75;;;11.50;;
53207;SDS011;39093;52.788;6.940;2024-02-14T00:37:55;22.13;;;12.75;;
53207;SDS011;39093;52.788;6.940;2024-02-14T00:40:22;14.73;;;12.65;;
53207;SDS011;39093;52.788;6.940;2024-02-14T00:42:49;26.15;;;13.52;;
53207;SDS011;39093;52.788;6.940;2024-02-14T00:45:15;19.65;;;13.85;;
53207;SDS011;39093;52.788;6.940;2024-02-14T00:47:42;19.92;;;12.98;;
53207;SDS011;39093;52.788;6.940;2024-02-14T00:50:10;18.80;;;13.48;;
53207;SDS011;39093;52.788;6.940;2024-02-14T00:52:37;21.33;;;12.73;;
53207;SDS011;39093;52.788;6.940;2024-02-14T00:55:04;19.55;;;14.10;;
53207;SDS011;39093;52.788;6.940;2024-02-14T00:57:31;23.05;;;14.05;;
53207;SDS011;39093;52.788;6.940;2024-02-14T00:59:59;25.70;;;16.92;;
53207;SDS011;39093;52.788;6.940;2024-02-14T01:02:26;22.60;;;14.68;;
53207;SDS011;39093;52.788;6.940;2024-02-14T01:04:53;18.92;;;13.93;;
53207;SDS011;39093;52.788;6.940;2024-02-14T01:07:20;22.38;;;14.90;;
53207;SDS011;39093;52.788;6.940;2024-02-14T01:09:47;24.88;;;14.55;;
53207;SDS011;39093;52.788;6.940;2024-02-14T01:12:14;23.88;;;15.77;;
53207;SDS011;39093;52.788;6.940;2024-02-14T01:14:41;23.38;;;15.35;;
53207;SDS011;39093;52.788;6.940;2024-02-14T01:17:08;23.98;;;16.55;;
53207;SDS011;39093;52.788;6.940;2024-02-14T01:19:35;22.20;;;17.45;;
53207;SDS011;39093;52.788;6.940;2024-02-14T01:22:02;21.48;;;16.27;;
53207;SDS011;39093;52.788;6.940;2024-02-14T01:24:29;23.30;;;18.50;;
53207;SDS011;39093;52.788;6.940;2024-02-14T01:26:57;19.60;;;16.75;;
53207;SDS011;39093;52.788;6.940;2024-02-14T01:29:24;20.85;;;15.55;;
53207;SDS011;39093;52.788;6.940;2024-02-14T01:31:51;22.13;;;17.05;;
53207;SDS011;39093;52.788;6.940;2024-02-14T01:34:18;23.98;;;17.17;;
53207;SDS011;39093;52.788;6.940;2024-02-14T01:36:45;20.90;;;17.58;;
53207;SDS011;39093;52.788;6.940;2024-02-14T01:39:14;26.58;;;18.23;;
53207;SDS011;39093;52.788;6.940;2024-02-14T01:41:44;19.98;;;16.50;;
53207;SDS011;39093;52.788;6.940;2024-02-14T01:44:15;22.05;;;17.83;;
53207;SDS011;39093;52.788;6.940;2024-02-14T01:46:43;20.58;;;16.52;;
53207;SDS011;39093;52.788;6.940;2024-02-14T01:49:11;18.50;;;16.42;;
53207;SDS011;39093;52.788;6.940;2024-02-14T01:51:39;18.52;;;15.98;;
53207;SDS011;39093;52.788;6.940;2024-02-14T01:54:08;19.73;;;16.02;;
53207;SDS011;39093;52.788;6.940;2024-02-14T01:56:36;18.45;;;16.42;;
53207;SDS011;39093;52.788;6.940;2024-02-14T01:59:04;16.30;;;14.30;;
53207;SDS011;39093;52.788;6.940;2024-02-14T02:01:32;21.58;;;15.75;;
53207;SDS011;39093;52.788;6.940;2024-02-14T02:04:00;16.95;;;13.48;;
53207;SDS011;39093;52.788;6.940;2024-02-14T02:06:28;14.75;;;13.25;;
53207;SDS011;39093;52.788;6.940;2024-02-14T02:08:57;14.23;;;12.63;;
53207;SDS011;39093;52.788;6.940;2024-02-14T02:11:25;20.05;;;12.75;;
53207;SDS011;39093;52.788;6.940;2024-02-14T02:13:52;18.00;;;11.25;;
53207;SDS011;39093;52.788;6.940;2024-02-14T02:16:19;17.35;;;11.93;;
53207;SDS011;39093;52.788;6.940;2024-02-14T02:18:46;13.75;;;10.20;;
53207;SDS011;39093;52.788;6.940;2024-02-14T02:21:15;10.68;;;9.60;;
53207;SDS011;39093;52.788;6.940;2024-02-14T02:23:46;13.32;;;10.07;;
53207;SDS011;39093;52.788;6.940;2024-02-14T02:26:14;12.30;;;10.20;;
53207;SDS011;39093;52.788;6.940;2024-02-14T02:28:41;11.05;;;9.43;;
53207;SDS011;39093;52.788;6.940;2024-02-14T02:31:09;10.98;;;9.73;;
53207;SDS011;39093;52.788;6.940;2024-02-14T02:33:36;12.60;;;9.77;;
53207;SDS011;39093;52.788;6.940;2024-02-14T02:36:03;13.90;;;10.52;;
53207;SDS011;39093;52.788;6.940;2024-02-14T02:38:33;11.57;;;9.60;;
53207;SDS011;39093;52.788;6.940;2024-02-14T02:41:00;14.40;;;9.45;;
53207;SDS011;39093;52.788;6.940;2024-02-14T02:43:27;11.23;;;10.02;;
53207;SDS011;39093;52.788;6.940;2024-02-14T02:45:54;12.75;;;9.95;;
53207;SDS011;39093;52.788;6.940;2024-02-14T02:48:23;12.85;;;10.43;;
53207;SDS011;39093;52.788;6.940;2024-02-14T02:50:51;14.43;;;9.88;;
53207;SDS011;39093;52.788;6.940;2024-02-14T02:53:18;12.05;;;9.85;;
53207;SDS011;39093;52.788;6.940;2024-02-14T02:55:46;11.25;;;10.05;;
53207;SDS011;39093;52.788;6.940;2024-02-14T02:58:13;13.55;;;9.63;;
53207;SDS011;39093;52.788;6.940;2024-02-14T03:00:41;11.88;;;8.77;;
53207;SDS011;39093;52.788;6.940;2024-02-14T03:03:08;12.90;;;9.07;;
53207;SDS011;39093;52.788;6.940;2024-02-14T03:05:35;16.95;;;10.10;;
53207;SDS011;39093;52.788;6.940;2024-02-14T03:08:02;10.98;;;9.88;;
53207;SDS011;39093;52.788;6.940;2024-02-14T03:10:30;11.80;;;9.30;;
53207;SDS011;39093;52.788;6.940;2024-02-14T03:12:57;12.65;;;9.43;;
53207;SDS011;39093;52.788;6.940;2024-02-14T03:15:24;12.23;;;9.80;;
53207;SDS011;39093;52.788;6.940;2024-02-14T03:17:52;13.27;;;10.15;;
53207;SDS011;39093;52.788;6.940;2024-02-14T03:20:19;10.05;;;8.68;;
53207;SDS011;39093;52.788;6.940;2024-02-14T03:22:46;11.00;;;8.77;;
53207;SDS011;39093;52.788;6.940;2024-02-14T03:25:18;10.95;;;9.60;;
53207;SDS011;39093;52.788;6.940;2024-02-14T03:27:47;12.45;;;9.48;;
53207;SDS011;39093;52.788;6.940;2024-02-14T03:30:17;11.23;;;9.02;;
53207;SDS011;39093;52.788;6.940;2024-02-14T03:32:45;12.98;;;9.48;;
53207;SDS011;39093;52.788;6.940;2024-02-14T03:35:13;11.15;;;9.80;;
53207;SDS011;39093;52.788;6.940;2024-02-14T03:37:43;10.40;;;9.30;;
53207;SDS011;39093;52.788;6.940;2024-02-14T03:40:14;14.63;;;10.10;;
53207;SDS011;39093;52.788;6.940;2024-02-14T03:42:41;13.60;;;9.50;;
53207;SDS011;39093;52.788;6.940;2024-02-14T03:45:08;13.27;;;10.45;;
53207;SDS011;39093;52.788;6.940;2024-02-14T03:47:36;12.70;;;10.45;;
53207;SDS011;39093;52.788;6.940;2024-02-14T03:50:10;13.77;;;10.75;;
53207;SDS011;39093;52.788;6.940;2024-02-14T03:52:37;12.85;;;11.55;;
53207;SDS011;39093;52.788;6.940;2024-02-14T03:55:05;13.30;;;11.38;;
53207;SDS011;39093;52.788;6.940;2024-02-14T03:57:32;14.07;;;11.65;;
53207;SDS011;39093;52.788;6.940;2024-02-14T04:00:01;12.40;;;11.20;;
53207;SDS011;39093;52.788;6.940;2024-02-14T04:02:29;16.10;;;11.77;;
53207;SDS011;39093;52.788;6.940;2024-02-14T04:04:58;12.82;;;11.40;;
53207;SDS011;39093;52.788;6.940;2024-02-14T04:07:25;13.30;;;11.88;;
53207;SDS011;39093;52.788;6.940;2024-02-14T04:09:52;13.05;;;11.65;;
53207;SDS011;39093;52.788;6.940;2024-02-14T04:12:20;15.77;;;12.93;;
53207;SDS011;39093;52.788;6.940;2024-02-14T04:14:47;13.90;;;12.02;;
53207;SDS011;39093;52.788;6.940;2024-02-14T04:17:14;16.05;;;13.68;;
53207;SDS011;39093;52.788;6.940;2024-02-14T04:19:41;17.80;;;12.75;;
53207;SDS011;39093;52.788;6.940;2024-02-14T04:22:08;15.23;;;12.85;;
53207;SDS011;39093;52.788;6.940;2024-02-14T04:24:35;19.08;;;14.65;;
53207;SDS011;39093;52.788;6.940;2024-02-14T04:27:03;17.45;;;13.88;;
53207;SDS011;39093;52.788;6.940;2024-02-14T04:29:31;18.40;;;14.23;;
53207;SDS011;39093;52.788;6.940;2024-02-14T04:32:00;17.52;;;14.02;;
53207;SDS011;39093;52.788;6.940;2024-02-14T04:34:28;17.23;;;14.52;;
53207;SDS011;39093;52.788;6.940;2024-02-14T04:36:57;18.77;;;14.63;;
53207;SDS011;39093;52.788;6.940;2024-02-14T04:39:24;23.95;;;15.52;;
53207;SDS011;39093;52.788;6.940;2024-02-14T04:41:51;23.58;;;15.68;;
53207;SDS011;39093;52.788;6.940;2024-02-14T04:44:27;18.63;;;14.55;;
53207;SDS011;39093;52.788;6.940;2024-02-14T04:46:55;20.95;;;15.80;;
53207;SDS011;39093;52.788;6.940;2024-02-14T04:49:26;19.17;;;15.65;;
53207;SDS011;39093;52.788;6.940;2024-02-14T04:51:55;23.48;;;16.10;;
53207;SDS011;39093;52.788;6.940;2024-02-14T04:54:22;20.60;;;15.10;;
53207;SDS011;39093;52.788;6.940;2024-02-14T04:56:49;19.20;;;15.27;;
53207;SDS011;39093;52.788;6.940;2024-02-14T04:59:22;24.27;;;17.23;;
53207;SDS011;39093;52.788;6.940;2024-02-14T05:01:49;33.00;;;18.38;;
53207;SDS011;39093;52.788;6.940;2024-02-14T05:04:17;24.08;;;17.73;;
53207;SDS011;39093;52.788;6.940;2024-02-14T05:06:44;25.10;;;16.85;;
53207;SDS011;39093;52.788;6.940;2024-02-14T05:09:12;32.55;;;18.50;;
53207;SDS011;39093;52.788;6.940;2024-02-14T05:11:41;22.73;;;17.10;;
53207;SDS011;39093;52.788;6.940;2024-02-14T05:14:08;19.17;;;15.68;;
53207;SDS011;39093;52.788;6.940;2024-02-14T05:16:35;19.27;;;14.30;;
53207;SDS011;39093;52.788;6.940;2024-02-14T05:19:02;15.68;;;12.38;;
53207;SDS011;39093;52.788;6.940;2024-02-14T05:21:29;22.65;;;15.73;;
53207;SDS011;39093;52.788;6.940;2024-02-14T05:23:56;22.80;;;16.35;;
53207;SDS011;39093;52.788;6.940;2024-02-14T05:26:23;18.63;;;15.10;;
53207;SDS011;39093;52.788;6.940;2024-02-14T05:28:50;23.63;;;16.45;;
53207;SDS011;39093;52.788;6.940;2024-02-14T05:31:17;22.63;;;15.32;;
53207;SDS011;39093;52.788;6.940;2024-02-14T05:33:44;20.27;;;15.40;;
53207;SDS011;39093;52.788;6.940;2024-02-14T05:36:11;20.05;;;16.15;;
53207;SDS011;39093;52.788;6.940;2024-02-14T05:38:38;23.65;;;16.60;;
53207;SDS011;39093;52.788;6.940;2024-02-14T05:41:06;27.77;;;16.92;;
53207;SDS011;39093;52.788;6.940;2024-02-14T05:43:34;28.67;;;17.27;;
53207;SDS011;39093;52.788;6.940;2024-02-14T05:46:01;23.98;;;16.90;;
53207;SDS011;39093;52.788;6.940;2024-02-14T05:48:27;27.65;;;16.50;;
53207;SDS011;39093;52.788;6.940;2024-02-14T05:50:55;25.50;;;18.15;;
53207;SDS011;39093;52.788;6.940;2024-02-14T05:53:22;26.27;;;17.85;;
53207;SDS011;39093;52.788;6.940;2024-02-14T05:55:49;26.17;;;16.65;;
53207;SDS011;39093;52.788;6.940;2024-02-14T05:58:16;29.13;;;17.45;;
53207;SDS011;39093;52.788;6.940;2024-02-14T06:00:45;23.50;;;16.42;;
53207;SDS011;39093;52.788;6.940;2024-02-14T06:03:13;25.15;;;16.95;;
53207;SDS011;39093;52.788;6.940;2024-02-14T06:05:40;25.60;;;16.73;;
53207;SDS011;39093;52.788;6.940;2024-02-14T06:08:07;28.67;;;17.85;;
53207;SDS011;39093;52.788;6.940;2024-02-14T06:10:33;27.33;;;17.27;;
53207;SDS011;39093;52.788;6.940;2024-02-14T06:13:01;31.10;;;18.02;;
53207;SDS011;39093;52.788;6.940;2024-02-14T06:15:28;26.98;;;17.25;;
53207;SDS011;39093;52.788;6.940;2024-02-14T06:17:55;34.30;;;20.13;;
53207;SDS011;39093;52.788;6.940;2024-02-14T06:20:22;34.55;;;19.70;;
53207;SDS011;39093;52.788;6.940;2024-02-14T06:22:50;34.50;;;19.63;;
53207;SDS011;39093;52.788;6.940;2024-02-14T06:25:29;33.00;;;19.48;;
53207;SDS011;39093;52.788;6.940;2024-02-14T06:27:56;43.33;;;22.20;;
53207;SDS011;39093;52.788;6.940;2024-02-14T06:30:23;31.30;;;20.73;;
53207;SDS011;39093;52.788;6.940;2024-02-14T06:32:56;36.47;;;22.45;;
53207;SDS011;39093;52.788;6.940;2024-02-14T06:35:28;39.42;;;23.85;;
53207;SDS011;39093;52.788;6.940;2024-02-14T06:37:56;38.70;;;22.55;;
53207;SDS011;39093;52.788;6.940;2024-02-14T06:40:30;45.92;;;25.25;;
53207;SDS011;39093;52.788;6.940;2024-02-14T06:42:57;35.97;;;21.83;;
53207;SDS011;39093;52.788;6.940;2024-02-14T06:45:26;36.35;;;22.35;;
53207;SDS011;39093;52.788;6.940;2024-02-14T06:47:56;44.65;;;24.10;;
53207;SDS011;39093;52.788;6.940;2024-02-14T06:50:23;41.40;;;23.10;;
53207;SDS011;39093;52.788;6.940;2024-02-14T06:52:54;44.17;;;25.25;;
53207;SDS011;39093;52.788;6.940;2024-02-14T06:55:26;49.35;;;25.45;;
53207;SDS011;39093;52.788;6.940;2024-02-14T06:57:53;45.97;;;26.35;;
53207;SDS011;39093;52.788;6.940;2024-02-14T07:00:20;51.92;;;28.38;;
53207;SDS011;39093;52.788;6.940;2024-02-14T07:02:47;43.67;;;26.08;;
53207;SDS011;39093;52.788;6.940;2024-02-14T07:05:14;51.15;;;29.45;;
53207;SDS011;39093;52.788;6.940;2024-02-14T07:07:42;53.25;;;29.25;;
53207;SDS011;39093;52.788;6.940;2024-02-14T07:10:09;56.60;;;30.23;;
53207;SDS011;39093;52.788;6.940;2024-02-14T07:12:36;64.60;;;32.63;;
53207;SDS011;39093;52.788;6.940;2024-02-14T07:15:03;61.97;;;31.02;;
53207;SDS011;39093;52.788;6.940;2024-02-14T07:17:31;69.78;;;31.00;;
53207;SDS011;39093;52.788;6.940;2024-02-14T07:19:59;61.33;;;30.77;;
53207;SDS011;39093;52.788;6.940;2024-02-14T07:22:27;61.15;;;30.92;;
53207;SDS011;39093;52.788;6.940;2024-02-14T07:24:56;61.80;;;31.25;;
53207;SDS011;39093;52.788;6.940;2024-02-14T07:27:23;66.65;;;33.55;;
53207;SDS011;39093;52.788;6.940;2024-02-14T07:29:50;56.88;;;29.98;;
53207;SDS011;39093;52.788;6.940;2024-02-14T07:32:18;69.85;;;33.53;;
53207;SDS011;39093;52.788;6.940;2024-02-14T07:34:45;67.03;;;33.00;;
53207;SDS011;39093;52.788;6.940;2024-02-14T07:37:12;57.53;;;32.08;;
53207;SDS011;39093;52.788;6.940;2024-02-14T07:39:41;70.70;;;32.25;;
53207;SDS011;39093;52.788;6.940;2024-02-14T07:42:08;66.75;;;30.75;;
53207;SDS011;39093;52.788;6.940;2024-02-14T07:44:35;60.17;;;31.20;;
53207;SDS011;39093;52.788;6.940;2024-02-14T07:47:03;66.45;;;33.72;;
53207;SDS011;39093;52.788;6.940;2024-02-14T07:49:32;63.08;;;31.13;;
53207;SDS011;39093;52.788;6.940;2024-02-14T07:52:00;64.70;;;32.13;;
53207;SDS011;39093;52.788;6.940;2024-02-14T07:54:27;74.15;;;33.58;;
53207;SDS011;39093;52.788;6.940;2024-02-14T07:56:54;72.82;;;32.80;;
53207;SDS011;39093;52.788;6.940;2024-02-14T07:59:21;71.57;;;33.15;;
53207;SDS011;39093;52.788;6.940;2024-02-14T08:01:47;70.50;;;34.25;;
53207;SDS011;39093;52.788;6.940;2024-02-14T08:04:14;70.20;;;34.00;;
53207;SDS011;39093;52.788;6.940;2024-02-14T08:06:44;60.95;;;32.17;;
53207;SDS011;39093;52.788;6.940;2024-02-14T08:09:13;78.38;;;35.13;;
53207;SDS011;39093;52.788;6.940;2024-02-14T08:11:40;74.40;;;34.00;;
53207;SDS011;39093;52.788;6.940;2024-02-14T08:14:07;74.40;;;34.70;;
53207;SDS011;39093;52.788;6.940;2024-02-14T08:16:34;78.07;;;36.30;;
53207;SDS011;39093;52.788;6.940;2024-02-14T08:19:02;87.07;;;38.58;;
53207;SDS011;39093;52.788;6.940;2024-02-14T08:21:30;86.32;;;37.15;;
53207;SDS011;39093;52.788;6.940;2024-02-14T08:23:58;88.00;;;38.83;;
53207;SDS011;39093;52.788;6.940;2024-02-14T08:26:27;94.78;;;40.13;;
53207;SDS011;39093;52.788;6.940;2024-02-14T08:28:55;105.32;;;43.47;;
53207;SDS011;39093;52.788;6.940;2024-02-14T08:31:22;100.53;;;42.03;;
53207;SDS011;39093;52.788;6.940;2024-02-14T08:33:49;93.90;;;42.40;;
53207;SDS011;39093;52.788;6.940;2024-02-14T08:36:16;98.30;;;42.20;;
53207;SDS011;39093;52.788;6.940;2024-02-14T08:38:45;119.95;;;46.05;;
53207;SDS011;39093;52.788;6.940;2024-02-14T08:41:12;105.80;;;42.28;;
53207;SDS011;39093;52.788;6.940;2024-02-14T08:43:40;95.05;;;42.92;;
53207;SDS011;39093;52.788;6.940;2024-02-14T08:46:12;100.07;;;41.90;;
53207;SDS011;39093;52.788;6.940;2024-02-14T08:48:39;88.25;;;39.05;;
53207;SDS011;39093;52.788;6.940;2024-02-14T08:51:14;78.03;;;37.85;;
53207;SDS011;39093;52.788;6.940;2024-02-14T08:53:41;86.88;;;37.45;;
53207;SDS011;39093;52.788;6.940;2024-02-14T08:56:10;99.10;;;37.38;;
53207;SDS011;39093;52.788;6.940;2024-02-14T08:58:37;78.93;;;35.80;;
53207;SDS011;39093;52.788;6.940;2024-02-14T09:01:04;80.35;;;34.15;;
53207;SDS011;39093;52.788;6.940;2024-02-14T09:03:40;83.15;;;35.30;;
53207;SDS011;39093;52.788;6.940;2024-02-14T09:06:16;79.10;;;35.92;;
53207;SDS011;39093;52.788;6.940;2024-02-14T09:08:45;81.72;;;36.22;;
53207;SDS011;39093;52.788;6.940;2024-02-14T09:11:12;80.43;;;36.63;;
53207;SDS011;39093;52.788;6.940;2024-02-14T09:13:39;82.82;;;36.80;;
53207;SDS011;39093;52.788;6.940;2024-02-14T09:16:09;73.90;;;35.03;;
53207;SDS011;39093;52.788;6.940;2024-02-14T09:18:40;74.40;;;34.00;;
53207;SDS011;39093;52.788;6.940;2024-02-14T09:21:07;68.20;;;33.30;;
53207;SDS011;39093;52.788;6.940;2024-02-14T09:23:35;64.47;;;31.52;;
53207;SDS011;39093;52.788;6.940;2024-02-14T09:26:06;71.47;;;34.20;;
53207;SDS011;39093;52.788;6.940;2024-02-14T09:28:33;66.03;;;30.80;;
53207;SDS011;39093;52.788;6.940;2024-02-14T09:31:01;60.72;;;30.83;;
53207;SDS011;39093;52.788;6.940;2024-02-14T09:33:30;62.55;;;32.25;;
53207;SDS011;39093;52.788;6.940;2024-02-14T09:35:58;71.40;;;32.50;;
53207;SDS011;39093;52.788;6.940;2024-02-14T09:38:24;57.55;;;27.75;;
53207;SDS011;39093;52.788;6.940;2024-02-14T09:40:53;59.88;;;29.48;;
53207;SDS011;39093;52.788;6.940;2024-02-14T09:43:37;62.88;;;28.58;;
53207;SDS011;39093;52.788;6.940;2024-02-14T09:46:07;62.55;;;29.55;;
53207;SDS011;39093;52.788;6.940;2024-02-14T09:48:35;56.33;;;27.50;;
53207;SDS011;39093;52.788;6.940;2024-02-14T09:51:04;58.00;;;28.52;;
53207;SDS011;39093;52.788;6.940;2024-02-14T09:53:32;52.08;;;27.23;;
53207;SDS011;39093;52.788;6.940;2024-02-14T09:56:01;59.05;;;29.05;;
53207;SDS011;39093;52.788;6.940;2024-02-14T09:58:29;58.78;;;26.50;;
53207;SDS011;39093;52.788;6.940;2024-02-14T10:01:00;51.90;;;26.23;;
53207;SDS011;39093;52.788;6.940;2024-02-14T10:03:27;53.10;;;26.42;;
53207;SDS011;39093;52.788;6.940;2024-02-14T10:05:54;51.17;;;25.40;;
53207;SDS011;39093;52.788;6.940;2024-02-14T10:08:22;48.65;;;25.42;;
53207;SDS011;39093;52.788;6.940;2024-02-14T10:10:49;44.83;;;23.50;;
53207;SDS011;39093;52.788;6.940;2024-02-14T10:13:19;52.85;;;25.67;;
53207;SDS011;39093;52.788;6.940;2024-02-14T10:15:46;48.05;;;24.08;;
53207;SDS011;39093;52.788;6.940;2024-02-14T10:18:14;47.38;;;24.27;;
53207;SDS011;39093;52.788;6.940;2024-02-14T10:20:52;47.63;;;21.77;;
53207;SDS011;39093;52.788;6.940;2024-02-14T10:23:22;48.42;;;23.45;;
53207;SDS011;39093;52.788;6.940;2024-02-14T10:25:53;49.50;;;21.83;;
53207;SDS011;39093;52.788;6.940;2024-02-14T10:28:21;48.53;;;22.50;;
53207;SDS011;39093;52.788;6.940;2024-02-14T10:31:01;49.38;;;22.67;;
53207;SDS011;39093;52.788;6.940;2024-02-14T10:33:28;43.92;;;23.75;;
53207;SDS011;39093;52.788;6.940;2024-02-14T10:35:57;43.92;;;23.77;;
53207;SDS011;39093;52.788;6.940;2024-02-14T10:38:31;38.97;;;21.50;;
53207;SDS011;39093;52.788;6.940;2024-02-14T10:43:28;47.95;;;24.63;;
53207;SDS011;39093;52.788;6.940;2024-02-14T10:45:56;51.00;;;25.85;;
53207;SDS011;39093;52.788;6.940;2024-02-14T10:48:25;53.08;;;25.08;;
53207;SDS011;39093;52.788;6.940;2024-02-14T10:50:59;51.85;;;25.02;;
53207;SDS011;39093;52.788;6.940;2024-02-14T10:53:32;49.08;;;24.27;;
53207;SDS011;39093;52.788;6.940;2024-02-14T10:56:01;46.55;;;24.88;;
53207;SDS011;39093;52.788;6.940;2024-02-14T10:58:29;47.47;;;23.85;;
53207;SDS011;39093;52.788;6.940;2024-02-14T11:00:59;42.35;;;22.20;;
53207;SDS011;39093;52.788;6.940;2024-02-14T11:03:27;41.58;;;23.08;;
53207;SDS011;39093;52.788;6.940;2024-02-14T11:06:00;47.53;;;24.48;;
53207;SDS011;39093;52.788;6.940;2024-02-14T11:08:32;38.28;;;21.17;;
53207;SDS011;39093;52.788;6.940;2024-02-14T11:11:01;52.78;;;24.90;;
53207;SDS011;39093;52.788;6.940;2024-02-14T11:13:28;45.65;;;23.00;;
53207;SDS011;39093;52.788;6.940;2024-02-14T11:16:02;47.88;;;25.10;;
53207;SDS011;39093;52.788;6.940;2024-02-14T11:18:31;43.75;;;23.77;;
53207;SDS011;39093;52.788;6.940;2024-02-14T11:21:04;35.05;;;20.58;;
53207;SDS011;39093;52.788;6.940;2024-02-14T11:23:52;35.92;;;22.13;;
53207;SDS011;39093;52.788;6.940;2024-02-14T11:26:19;38.08;;;22.10;;
53207;SDS011;39093;52.788;6.940;2024-02-14T11:28:46;33.10;;;21.80;;
53207;SDS011;39093;52.788;6.940;2024-02-14T11:31:18;32.63;;;20.08;;
53207;SDS011;39093;52.788;6.940;2024-02-14T11:33:45;31.48;;;20.50;;
53207;SDS011;39093;52.788;6.940;2024-02-14T11:36:13;28.70;;;19.88;;
53207;SDS011;39093;52.788;6.940;2024-02-14T11:38:43;30.42;;;19.05;;
53207;SDS011;39093;52.788;6.940;2024-02-14T11:41:10;29.10;;;18.98;;
53207;SDS011;39093;52.788;6.940;2024-02-14T11:43:37;30.40;;;19.50;;
53207;SDS011;39093;52.788;6.940;2024-02-14T11:46:06;27.17;;;19.67;;
53207;SDS011;39093;52.788;6.940;2024-02-14T11:48:33;30.17;;;19.83;;
53207;SDS011;39093;52.788;6.940;2024-02-14T11:51:01;26.02;;;17.25;;
53207;SDS011;39093;52.788;6.940;2024-02-14T11:53:28;27.70;;;19.80;;
53207;SDS011;39093;52.788;6.940;2024-02-14T11:55:58;24.67;;;18.05;;
53207;SDS011;39093;52.788;6.940;2024-02-14T11:58:25;26.25;;;18.35;;
53207;SDS011;39093;52.788;6.940;2024-02-14T12:00:52;21.77;;;16.52;;
53207;SDS011;39093;52.788;6.940;2024-02-14T12:03:20;22.13;;;17.17;;
53207;SDS011;39093;52.788;6.940;2024-02-14T12:05:50;22.45;;;18.10;;
53207;SDS011;39093;52.788;6.940;2024-02-14T12:08:19;21.65;;;17.15;;
53207;SDS011;39093;52.788;6.940;2024-02-14T12:10:48;23.30;;;17.30;;
53207;SDS011;39093;52.788;6.940;2024-02-14T12:13:19;23.80;;;18.08;;
53207;SDS011;39093;52.788;6.940;2024-02-14T12:15:48;20.02;;;16.33;;
53207;SDS011;39093;52.788;6.940;2024-02-14T12:18:18;20.88;;;15.93;;
53207;SDS011;39093;52.788;6.940;2024-02-14T12:20:46;19.83;;;16.45;;
53207;SDS011;39093;52.788;6.940;2024-02-14T12:23:20;18.45;;;14.98;;
53207;SDS011;39093;52.788;6.940;2024-02-14T12:25:48;17.65;;;15.60;;
53207;SDS011;39093;52.788;6.940;2024-02-14T12:28:16;17.13;;;14.02;;
53207;SDS011;39093;52.788;6.940;2024-02-14T12:30:48;16.50;;;14.75;;
53207;SDS011;39093;52.788;6.940;2024-02-14T12:33:18;17.52;;;13.93;;
53207;SDS011;39093;52.788;6.940;2024-02-14T12:35:46;19.00;;;14.85;;
53207;SDS011;39093;52.788;6.940;2024-02-14T12:38:17;21.17;;;15.13;;
53207;SDS011;39093;52.788;6.940;2024-02-14T12:40:46;19.88;;;14.20;;
53207;SDS011;39093;52.788;6.940;2024-02-14T12:43:13;18.90;;;14.32;;
53207;SDS011;39093;52.788;6.940;2024-02-14T12:45:41;18.60;;;14.40;;
53207;SDS011;39093;52.788;6.940;2024-02-14T12:48:09;22.48;;;15.85;;
53207;SDS011;39093;52.788;6.940;2024-02-14T12:50:37;24.17;;;16.80;;
53207;SDS011;39093;52.788;6.940;2024-02-14T12:53:05;21.10;;;16.02;;
53207;SDS011;39093;52.788;6.940;2024-02-14T12:55:33;21.33;;;15.95;;
53207;SDS011;39093;52.788;6.940;2024-02-14T12:58:00;19.45;;;16.40;;
53207;SDS011;39093;52.788;6.940;2024-02-14T13:00:27;19.95;;;17.00;;
53207;SDS011;39093;52.788;6.940;2024-02-14T13:02:56;19.58;;;17.10;;
53207;SDS011;39093;52.788;6.940;2024-02-14T13:05:23;26.75;;;17.30;;
53207;SDS011;39093;52.788;6.940;2024-02-14T13:07:50;24.30;;;18.63;;
53207;SDS011;39093;52.788;6.940;2024-02-14T13:10:17;20.20;;;16.73;;
53207;SDS011;39093;52.788;6.940;2024-02-14T13:12:44;23.23;;;16.90;;
53207;SDS011;39093;52.788;6.940;2024-02-14T13:15:12;22.17;;;16.92;;
53207;SDS011;39093;52.788;6.940;2024-02-14T13:17:39;24.65;;;17.95;;
53207;SDS011;39093;52.788;6.940;2024-02-14T13:20:06;24.08;;;18.35;;
53207;SDS011;39093;52.788;6.940;2024-02-14T13:22:34;29.17;;;18.63;;
53207;SDS011;39093;52.788;6.940;2024-02-14T13:25:03;30.00;;;18.95;;
53207;SDS011;39093;52.788;6.940;2024-02-14T13:27:31;23.73;;;17.55;;
53207;SDS011;39093;52.788;6.940;2024-02-14T13:29:59;26.23;;;17.77;;
53207;SDS011;39093;52.788;6.940;2024-02-14T13:32:27;26.10;;;18.92;;
53207;SDS011;39093;52.788;6.940;2024-02-14T13:34:54;32.75;;;20.35;;
53207;SDS011;39093;52.788;6.940;2024-02-14T13:37:21;26.98;;;18.90;;
53207;SDS011;39093;52.788;6.940;2024-02-14T13:39:49;26.75;;;18.48;;
53207;SDS011;39093;52.788;6.940;2024-02-14T13:42:17;25.55;;;19.33;;
53207;SDS011;39093;52.788;6.940;2024-02-14T13:44:44;32.83;;;21.08;;
53207;SDS011;39093;52.788;6.940;2024-02-14T13:47:11;28.98;;;19.48;;
53207;SDS011;39093;52.788;6.940;2024-02-14T13:49:38;23.17;;;18.80;;
53207;SDS011;39093;52.788;6.940;2024-02-14T13:52:05;28.55;;;18.70;;
53207;SDS011;39093;52.788;6.940;2024-02-14T13:54:32;29.40;;;19.33;;
53207;SDS011;39093;52.788;6.940;2024-02-14T13:56:59;23.13;;;18.65;;
53207;SDS011;39093;52.788;6.940;2024-02-14T13:59:26;24.88;;;18.38;;
53207;SDS011;39093;52.788;6.940;2024-02-14T14:01:54;29.52;;;20.10;;
53207;SDS011;39093;52.788;6.940;2024-02-14T14:04:21;22.98;;;17.70;;
53207;SDS011;39093;52.788;6.940;2024-02-14T14:06:48;24.98;;;18.17;;
53207;SDS011;39093;52.788;6.940;2024-02-14T14:09:15;23.58;;;16.75;;
53207;SDS011;39093;52.788;6.940;2024-02-14T14:11:43;21.75;;;16.30;;
53207;SDS011;39093;52.788;6.940;2024-02-14T14:14:09;24.17;;;16.70;;
53207;SDS011;39093;52.788;6.940;2024-02-14T14:16:42;22.65;;;17.48;;
53207;SDS011;39093;52.788;6.940;2024-02-14T14:19:10;22.60;;;17.48;;
53207;SDS011;39093;52.788;6.940;2024-02-14T14:21:37;24.95;;;16.60;;
53207;SDS011;39093;52.788;6.940;2024-02-14T14:24:05;26.52;;;17.00;;
53207;SDS011;39093;52.788;6.940;2024-02-14T14:26:32;19.90;;;15.00;;
53207;SDS011;39093;52.788;6.940;2024-02-14T14:28:59;23.00;;;16.15;;
53207;SDS011;39093;52.788;6.940;2024-02-14T14:31:26;22.58;;;14.68;;